Nearby METARS Reports

 

LFML - Marseille/Marign, France
Distance from station: O 47km
Mise à jour: 15/12/2018 08:30
clair
clair
 Wind from NE
Vent: NE 11 km/h
Température: 0°C
Wind Chill: -4°C
Point de rosée: -4°C
Humidité: 75%
Baromètre: 1020 hPa
Résumé: clair
Visibility: greater than 10 km
2018/12/15 07:30 LFML 150730Z AUTO 05006KT 340V110 CAVOK 00/M04 Q1020 NOSIG
LFMC - Le Luc/Le Cannet, France
Distance from station: ESE 48km
Mise à jour: 15/12/2018 08:30

 Wind from calm
Vent: calme
Température: -1°C
Point de rosée: -2°C
Humidité: 93%
Baromètre: 1019 hPa
Visibility: 10 km
2018/12/15 07:30 LFMC 150730Z AUTO 00000KT 9999 // ////// M01/M02 Q1019
LFTH - Hyeres/Le Palyve, France
Distance from station: SSE 53km
Mise à jour: 15/12/2018 08:30
clair
clair
 Wind from NO
Vent: NO 15 km/h
Température: 4°C
Wind Chill: 1°C
Point de rosée: -2°C
Humidité: 65%
Baromètre: 1018 hPa
Résumé: clair
Visibility: greater than 10 km
2018/12/15 07:30 LFTH 150730Z AUTO 31008KT CAVOK 04/M02 Q1018 NOSIG